sensor_id;sensor_type;location;lat;lon;timestamp;pressure;altitude;pressure_sealevel;temperature;humidity
54910;BME280;63189;51.240;9.964;2023-03-03T00:01:50;98377.69;;;0.28;100.00
54910;BME280;63189;51.240;9.964;2023-03-03T00:04:15;98387.13;;;0.31;100.00
54910;BME280;63189;51.240;9.964;2023-03-03T00:06:41;98387.94;;;0.28;100.00
54910;BME280;63189;51.240;9.964;2023-03-03T00:09:08;98388.81;;;0.29;100.00
54910;BME280;63189;51.240;9.964;2023-03-03T00:11:36;98393.03;;;0.25;100.00
54910;BME280;63189;51.240;9.964;2023-03-03T00:14:16;98382.66;;;0.19;100.00
54910;BME280;63189;51.240;9.964;2023-03-03T00:16:42;98389.44;;;0.14;100.00
54910;BME280;63189;51.240;9.964;2023-03-03T00:19:17;98383.34;;;0.09;100.00
54910;BME280;63189;51.240;9.964;2023-03-03T00:22:01;98382.44;;;0.07;100.00
54910;BME280;63189;51.240;9.964;2023-03-03T00:24:38;98398.66;;;0.06;100.00
54910;BME280;63189;51.240;9.964;2023-03-03T00:27:39;98394.50;;;0.11;100.00
54910;BME280;63189;51.240;9.964;2023-03-03T00:30:16;98399.56;;;0.10;100.00
54910;BME280;63189;51.240;9.964;2023-03-03T00:32:45;98402.13;;;0.08;100.00
54910;BME280;63189;51.240;9.964;2023-03-03T00:35:27;98400.31;;;0.03;100.00
54910;BME280;63189;51.240;9.964;2023-03-03T00:37:59;98399.50;;;0.04;100.00
54910;BME280;63189;51.240;9.964;2023-03-03T00:40:38;98400.31;;;0.03;100.00
54910;BME280;63189;51.240;9.964;2023-03-03T00:45:50;98395.88;;;-0.06;100.00
54910;BME280;63189;51.240;9.964;2023-03-03T00:48:20;98393.16;;;-0.15;100.00
54910;BME280;63189;51.240;9.964;2023-03-03T00:50:46;98393.09;;;-0.18;100.00
54910;BME280;63189;51.240;9.964;2023-03-03T00:53:17;98395.59;;;-0.21;100.00
54910;BME280;63189;51.240;9.964;2023-03-03T00:55:44;98395.59;;;-0.21;100.00
54910;BME280;63189;51.240;9.964;2023-03-03T00:58:09;98393.88;;;-0.22;100.00
54910;BME280;63189;51.240;9.964;2023-03-03T01:00:36;98393.88;;;-0.22;100.00
54910;BME280;63189;51.240;9.964;2023-03-03T01:03:04;98393.84;;;-0.24;100.00
54910;BME280;63189;51.240;9.964;2023-03-03T01:05:30;98392.13;;;-0.23;100.00
54910;BME280;63189;51.240;9.964;2023-03-03T01:07:55;98381.84;;;-0.26;100.00
54910;BME280;63189;51.240;9.964;2023-03-03T01:10:21;98391.28;;;-0.24;100.00
54910;BME280;63189;51.240;9.964;2023-03-03T01:12:46;98395.59;;;-0.21;100.00
54910;BME280;63189;51.240;9.964;2023-03-03T01:15:13;98397.28;;;-0.22;100.00
54910;BME280;63189;51.240;9.964;2023-03-03T01:17:40;98391.28;;;-0.24;100.00
54910;BME280;63189;51.240;9.964;2023-03-03T01:20:08;98397.25;;;-0.23;100.00
54910;BME280;63189;51.240;9.964;2023-03-03T01:22:33;98399.75;;;-0.28;100.00
54910;BME280;63189;51.240;9.964;2023-03-03T01:24:59;98391.19;;;-0.30;100.00
54910;BME280;63189;51.240;9.964;2023-03-03T01:27:24;98389.41;;;-0.33;100.00
54910;BME280;63189;51.240;9.964;2023-03-03T01:29:50;98395.38;;;-0.32;100.00
54910;BME280;63189;51.240;9.964;2023-03-03T01:32:15;98401.34;;;-0.33;100.00
54910;BME280;63189;51.240;9.964;2023-03-03T01:34:40;98411.66;;;-0.30;100.00
54910;BME280;63189;51.240;9.964;2023-03-03T01:37:06;98394.59;;;-0.30;100.00
54910;BME280;63189;51.240;9.964;2023-03-03T01:39:31;98399.75;;;-0.28;100.00
54910;BME280;63189;51.240;9.964;2023-03-03T01:41:56;98410.91;;;-0.24;100.00
54910;BME280;63189;51.240;9.964;2023-03-03T01:44:22;98398.09;;;-0.24;100.00
54910;BME280;63189;51.240;9.964;2023-03-03T01:52:04;98399.75;;;-0.28;100.00
54910;BME280;63189;51.240;9.964;2023-03-03T01:54:38;98398.00;;;-0.31;100.00
54910;BME280;63189;51.240;9.964;2023-03-03T01:57:11;98404.88;;;-0.28;100.00
54910;BME280;63189;51.240;9.964;2023-03-03T01:59:43;98403.13;;;-0.31;100.00
54910;BME280;63189;51.240;9.964;2023-03-03T02:02:10;98396.34;;;-0.27;100.00
54910;BME280;63189;51.240;9.964;2023-03-03T02:04:36;98399.78;;;-0.25;100.00
54910;BME280;63189;51.240;9.964;2023-03-03T02:07:05;98398.06;;;-0.26;100.00
54910;BME280;63189;51.240;9.964;2023-03-03T02:10:06;98391.22;;;-0.27;100.00
54910;BME280;63189;51.240;9.964;2023-03-03T02:12:42;98399.81;;;-0.23;100.00
54910;BME280;63189;51.240;9.964;2023-03-03T02:15:23;98391.28;;;-0.24;100.00
54910;BME280;63189;51.240;9.964;2023-03-03T02:17:56;98389.56;;;-0.23;100.00
54910;BME280;63189;51.240;9.964;2023-03-03T02:20:32;98384.47;;;-0.22;100.00
54910;BME280;63189;51.240;9.964;2023-03-03T02:42:28;98389.56;;;-0.25;100.00
54910;BME280;63189;51.240;9.964;2023-03-03T02:44:54;98402.38;;;-0.23;100.00
54910;BME280;63189;51.240;9.964;2023-03-03T02:47:19;98403.25;;;-0.23;100.00
54910;BME280;63189;51.240;9.964;2023-03-03T02:49:45;98400.78;;;-0.20;100.00
54910;BME280;63189;51.240;9.964;2023-03-03T02:52:11;98390.53;;;-0.18;100.00
54910;BME280;63189;51.240;9.964;2023-03-03T02:54:37;98387.97;;;-0.18;100.00
54910;BME280;63189;51.240;9.964;2023-03-03T02:57:03;98388.84;;;-0.18;100.00
54910;BME280;63189;51.240;9.964;2023-03-03T02:59:29;98396.53;;;-0.18;100.00
54910;BME280;63189;51.240;9.964;2023-03-03T03:01:55;98391.44;;;-0.16;100.00
54910;BME280;63189;51.240;9.964;2023-03-03T03:04:25;98392.25;;;-0.17;100.00
54910;BME280;63189;51.240;9.964;2023-03-03T03:06:51;98394.84;;;-0.17;100.00
54910;BME280;63189;51.240;9.964;2023-03-03T03:09:19;98399.09;;;-0.18;100.00
54910;BME280;63189;51.240;9.964;2023-03-03T03:11:45;98404.25;;;-0.16;100.00
54910;BME280;63189;51.240;9.964;2023-03-03T03:14:12;98399.13;;;-0.16;100.00
54910;BME280;63189;51.240;9.964;2023-03-03T03:16:38;98394.88;;;-0.14;100.00
54910;BME280;63189;51.240;9.964;2023-03-03T03:19:04;98406.81;;;-0.16;100.00
54910;BME280;63189;51.240;9.964;2023-03-03T03:21:30;98412.75;;;-0.17;100.00
54910;BME280;63189;51.240;9.964;2023-03-03T03:23:55;98416.19;;;-0.17;100.00
54910;BME280;63189;51.240;9.964;2023-03-03T03:26:21;98415.31;;;-0.19;100.00
54910;BME280;63189;51.240;9.964;2023-03-03T03:28:50;98407.59;;;-0.20;100.00
54910;BME280;63189;51.240;9.964;2023-03-03T03:31:16;98405.03;;;-0.20;100.00
54910;BME280;63189;51.240;9.964;2023-03-03T03:33:42;98404.09;;;-0.22;100.00
54910;BME280;63189;51.240;9.964;2023-03-03T03:36:07;98410.97;;;-0.21;100.00
54910;BME280;63189;51.240;9.964;2023-03-03T03:38:34;98401.56;;;-0.21;100.00
54910;BME280;63189;51.240;9.964;2023-03-03T03:41:01;98400.72;;;-0.21;100.00
54910;BME280;63189;51.240;9.964;2023-03-03T03:43:26;98400.72;;;-0.21;100.00
54910;BME280;63189;51.240;9.964;2023-03-03T03:45:52;98410.97;;;-0.21;100.00
54910;BME280;63189;51.240;9.964;2023-03-03T03:48:17;98395.59;;;-0.21;100.00
54910;BME280;63189;51.240;9.964;2023-03-03T03:50:45;98383.59;;;-0.22;100.00
54910;BME280;63189;51.240;9.964;2023-03-03T03:53:10;98379.34;;;-0.22;100.00
54910;BME280;63189;51.240;9.964;2023-03-03T03:55:36;98391.31;;;-0.21;100.00
54910;BME280;63189;51.240;9.964;2023-03-03T03:58:01;98395.53;;;-0.24;100.00
54910;BME280;63189;51.240;9.964;2023-03-03T04:00:27;98411.69;;;-0.28;100.00
54910;BME280;63189;51.240;9.964;2023-03-03T04:02:53;98410.06;;;-0.23;100.00
54910;BME280;63189;51.240;9.964;2023-03-03T04:05:18;98395.53;;;-0.24;100.00
54910;BME280;63189;51.240;9.964;2023-03-03T04:07:44;98397.25;;;-0.23;100.00
54910;BME280;63189;51.240;9.964;2023-03-03T04:10:10;98410.91;;;-0.24;100.00
54910;BME280;63189;51.240;9.964;2023-03-03T04:12:35;98410.03;;;-0.25;100.00
54910;BME280;63189;51.240;9.964;2023-03-03T04:15:08;98415.09;;;-0.30;100.00
54910;BME280;63189;51.240;9.964;2023-03-03T04:17:34;98401.34;;;-0.33;100.00
54910;BME280;63189;51.240;9.964;2023-03-03T04:19:59;98408.13;;;-0.37;100.00
54910;BME280;63189;51.240;9.964;2023-03-03T04:22:25;98414.06;;;-0.39;100.00
54910;BME280;63189;51.240;9.964;2023-03-03T04:24:50;98413.97;;;-0.42;100.00
54910;BME280;63189;51.240;9.964;2023-03-03T04:27:15;98419.00;;;-0.47;100.00
54910;BME280;63189;51.240;9.964;2023-03-03T04:29:41;98406.13;;;-0.51;100.00
54910;BME280;63189;51.240;9.964;2023-03-03T04:32:06;98415.50;;;-0.52;100.00
54910;BME280;63189;51.240;9.964;2023-03-03T04:34:32;98414.56;;;-0.55;100.00
54910;BME280;63189;51.240;9.964;2023-03-03T04:36:57;98413.69;;;-0.56;100.00
54910;BME280;63189;51.240;9.964;2023-03-03T04:39:23;98408.53;;;-0.59;100.00
54910;BME280;63189;51.240;9.964;2023-03-03T04:41:48;98419.66;;;-0.57;100.00
54910;BME280;63189;51.240;9.964;2023-03-03T04:44:13;98407.66;;;-0.60;100.00
54910;BME280;63189;51.240;9.964;2023-03-03T04:46:39;98408.53;;;-0.59;100.00
54910;BME280;63189;51.240;9.964;2023-03-03T04:49:04;98406.00;;;-0.56;100.00
54910;BME280;63189;51.240;9.964;2023-03-03T04:51:32;98418.00;;;-0.53;100.00
54910;BME280;63189;51.240;9.964;2023-03-03T04:53:58;98414.66;;;-0.51;100.00
54910;BME280;63189;51.240;9.964;2023-03-03T04:56:23;98418.16;;;-0.46;100.00
54910;BME280;63189;51.240;9.964;2023-03-03T04:58:48;98421.63;;;-0.44;100.00
54910;BME280;63189;51.240;9.964;2023-03-03T05:01:14;98415.59;;;-0.46;100.00
54910;BME280;63189;51.240;9.964;2023-03-03T05:03:40;98413.06;;;-0.46;100.00
54910;BME280;63189;51.240;9.964;2023-03-03T05:06:05;98412.19;;;-0.46;100.00
54910;BME280;63189;51.240;9.964;2023-03-03T05:08:31;98405.34;;;-0.47;100.00
54910;BME280;63189;51.240;9.964;2023-03-03T05:10:56;98419.00;;;-0.47;100.00
54910;BME280;63189;51.240;9.964;2023-03-03T05:13:24;98427.56;;;-0.46;100.00
54910;BME280;63189;51.240;9.964;2023-03-03T05:15:52;98425.00;;;-0.46;100.00
54910;BME280;63189;51.240;9.964;2023-03-03T05:18:20;98426.75;;;-0.44;100.00
54910;BME280;63189;51.240;9.964;2023-03-03T05:20:45;98438.66;;;-0.46;100.00
54910;BME280;63189;51.240;9.964;2023-03-03T05:23:11;98432.66;;;-0.48;100.00
54910;BME280;63189;51.240;9.964;2023-03-03T05:25:36;98440.34;;;-0.48;100.00
54910;BME280;63189;51.240;9.964;2023-03-03T05:28:02;98435.16;;;-0.51;100.00
54910;BME280;63189;51.240;9.964;2023-03-03T05:30:28;98440.19;;;-0.54;100.00
54910;BME280;63189;51.240;9.964;2023-03-03T05:32:54;98438.56;;;-0.52;100.00
54910;BME280;63189;51.240;9.964;2023-03-03T05:35:19;98437.66;;;-0.52;100.00
54910;BME280;63189;51.240;9.964;2023-03-03T05:37:55;98439.34;;;-0.53;100.00
54910;BME280;63189;51.240;9.964;2023-03-03T05:40:23;98438.41;;;-0.58;100.00
54910;BME280;63189;51.240;9.964;2023-03-03T05:42:48;98445.25;;;-0.57;100.00
54910;BME280;63189;51.240;9.964;2023-03-03T05:45:14;98439.25;;;-0.59;100.00
54910;BME280;63189;51.240;9.964;2023-03-03T05:47:39;98439.25;;;-0.59;100.00
54910;BME280;63189;51.240;9.964;2023-03-03T05:50:05;98440.13;;;-0.57;100.00
54910;BME280;63189;51.240;9.964;2023-03-03T05:52:30;98438.41;;;-0.58;100.00
54910;BME280;63189;51.240;9.964;2023-03-03T05:54:56;98451.03;;;-0.66;100.00
54910;BME280;63189;51.240;9.964;2023-03-03T05:57:21;98445.91;;;-0.67;100.00
54910;BME280;63189;51.240;9.964;2023-03-03T05:59:47;98451.75;;;-0.73;100.00
54910;BME280;63189;51.240;9.964;2023-03-03T06:02:13;98449.13;;;-0.74;100.00
54910;BME280;63189;51.240;9.964;2023-03-03T06:04:38;98449.22;;;-0.71;100.00
54910;BME280;63189;51.240;9.964;2023-03-03T06:07:04;98460.25;;;-0.74;100.00
54910;BME280;63189;51.240;9.964;2023-03-03T06:09:31;98454.19;;;-0.77;100.00
54910;BME280;63189;51.240;9.964;2023-03-03T06:11:56;98461.06;;;-0.76;100.00
54910;BME280;63189;51.240;9.964;2023-03-03T06:14:21;98452.53;;;-0.75;100.00
54910;BME280;63189;51.240;9.964;2023-03-03T06:16:47;98458.53;;;-0.73;100.00
54910;BME280;63189;51.240;9.964;2023-03-03T06:19:13;98456.88;;;-0.73;100.00
54910;BME280;63189;51.240;9.964;2023-03-03T06:21:39;98462.94;;;-0.69;100.00
54910;BME280;63189;51.240;9.964;2023-03-03T06:24:05;98474.91;;;-0.68;100.00
54910;BME280;63189;51.240;9.964;2023-03-03T06:26:31;98471.50;;;-0.67;100.00
54910;BME280;63189;51.240;9.964;2023-03-03T06:28:57;98480.88;;;-0.68;100.00
54910;BME280;63189;51.240;9.964;2023-03-03T06:31:22;98479.19;;;-0.67;100.00
54910;BME280;63189;51.240;9.964;2023-03-03T06:33:47;98480.03;;;-0.67;100.00
54910;BME280;63189;51.240;9.964;2023-03-03T06:36:13;98486.06;;;-0.65;100.00
54910;BME280;63189;51.240;9.964;2023-03-03T06:38:38;98487.78;;;-0.64;100.00
54910;BME280;63189;51.240;9.964;2023-03-03T06:41:03;98490.41;;;-0.62;100.00
54910;BME280;63189;51.240;9.964;2023-03-03T06:43:32;98491.28;;;-0.62;100.00
54910;BME280;63189;51.240;9.964;2023-03-03T06:45:57;98477.63;;;-0.61;100.00
54910;BME280;63189;51.240;9.964;2023-03-03T06:48:23;98493.75;;;-0.63;100.00
54910;BME280;63189;51.240;9.964;2023-03-03T06:50:48;98492.13;;;-0.61;100.00
54910;BME280;63189;51.240;9.964;2023-03-03T06:53:15;98497.16;;;-0.64;100.00
54910;BME280;63189;51.240;9.964;2023-03-03T06:55:41;98491.22;;;-0.63;100.00
54910;BME280;63189;51.240;9.964;2023-03-03T07:00:43;98496.31;;;-0.63;100.00
54910;BME280;63189;51.240;9.964;2023-03-03T07:03:32;98496.28;;;-0.66;100.00
54910;BME280;63189;51.240;9.964;2023-03-03T07:05:58;98493.72;;;-0.66;100.00
54910;BME280;63189;51.240;9.964;2023-03-03T07:08:24;98493.72;;;-0.66;100.00
54910;BME280;63189;51.240;9.964;2023-03-03T07:10:51;98486.00;;;-0.68;100.00
54910;BME280;63189;51.240;9.964;2023-03-03T07:13:27;98486.00;;;-0.68;100.00
54910;BME280;63189;51.240;9.964;2023-03-03T07:15:55;98490.31;;;-0.65;100.00
54910;BME280;63189;51.240;9.964;2023-03-03T07:18:38;98493.72;;;-0.66;100.00
54910;BME280;63189;51.240;9.964;2023-03-03T07:21:17;98505.69;;;-0.65;100.00
54910;BME280;63189;51.240;9.964;2023-03-03T07:23:45;98513.44;;;-0.62;100.00
54910;BME280;63189;51.240;9.964;2023-03-03T07:26:12;98510.09;;;-0.60;100.00
54910;BME280;63189;51.240;9.964;2023-03-03T07:28:43;98511.81;;;-0.59;100.00
54910;BME280;63189;51.240;9.964;2023-03-03T07:31:24;98509.22;;;-0.60;100.00
54910;BME280;63189;51.240;9.964;2023-03-03T07:33:50;98515.25;;;-0.58;100.00
54910;BME280;63189;51.240;9.964;2023-03-03T07:36:33;98519.47;;;-0.60;100.00
54910;BME280;63189;51.240;9.964;2023-03-03T07:39:03;98530.56;;;-0.60;100.00
54910;BME280;63189;51.240;9.964;2023-03-03T07:41:38;98520.25;;;-0.63;100.00
54910;BME280;63189;51.240;9.964;2023-03-03T07:44:05;98522.88;;;-0.61;100.00
54910;BME280;63189;51.240;9.964;2023-03-03T07:46:43;98534.66;;;-0.68;100.00
54910;BME280;63189;51.240;9.964;2023-03-03T07:49:36;98544.13;;;-0.64;100.00
54910;BME280;63189;51.240;9.964;2023-03-03T07:52:19;98534.81;;;-0.62;100.00
54910;BME280;63189;51.240;9.964;2023-03-03T07:54:47;98532.31;;;-0.59;100.00
54910;BME280;63189;51.240;9.964;2023-03-03T07:57:34;98538.28;;;-0.58;100.00
54910;BME280;63189;51.240;9.964;2023-03-03T08:00:10;98539.19;;;-0.56;100.00
54910;BME280;63189;51.240;9.964;2023-03-03T08:02:59;98546.03;;;-0.55;100.00
54910;BME280;63189;51.240;9.964;2023-03-03T08:05:29;98556.38;;;-0.52;100.00
54910;BME280;63189;51.240;9.964;2023-03-03T08:08:27;98559.63;;;-0.57;100.00
54910;BME280;63189;51.240;9.964;2023-03-03T08:11:00;98553.59;;;-0.61;100.00
54910;BME280;63189;51.240;9.964;2023-03-03T08:13:40;98563.75;;;-0.64;100.00
54910;BME280;63189;51.240;9.964;2023-03-03T08:18:37;98571.34;;;-0.67;100.00
54910;BME280;63189;51.240;9.964;2023-03-03T08:21:08;98578.28;;;-0.63;100.00
54910;BME280;63189;51.240;9.964;2023-03-03T08:23:35;98578.22;;;-0.66;100.00
54910;BME280;63189;51.240;9.964;2023-03-03T08:26:00;98581.56;;;-0.69;100.00
54910;BME280;63189;51.240;9.964;2023-03-03T08:28:25;98587.59;;;-0.67;100.00
54910;BME280;63189;51.240;9.964;2023-03-03T08:30:52;98579.03;;;-0.67;100.00
54910;BME280;63189;51.240;9.964;2023-03-03T08:33:17;98575.72;;;-0.63;100.00
54910;BME280;63189;51.240;9.964;2023-03-03T08:35:43;98578.28;;;-0.63;100.00
54910;BME280;63189;51.240;9.964;2023-03-03T08:38:09;98582.59;;;-0.62;100.00
54910;BME280;63189;51.240;9.964;2023-03-03T08:40:36;98581.78;;;-0.60;100.00
54910;BME280;63189;51.240;9.964;2023-03-03T08:43:01;98581.81;;;-0.58;100.00
54910;BME280;63189;51.240;9.964;2023-03-03T08:45:27;98580.09;;;-0.59;100.00
54910;BME280;63189;51.240;9.964;2023-03-03T08:47:52;98590.41;;;-0.56;100.00
54910;BME280;63189;51.240;9.964;2023-03-03T08:50:18;98585.28;;;-0.56;100.00
54910;BME280;63189;51.240;9.964;2023-03-03T08:52:44;98591.38;;;-0.51;100.00
54910;BME280;63189;51.240;9.964;2023-03-03T08:55:10;98589.59;;;-0.53;100.00
54910;BME280;63189;51.240;9.964;2023-03-03T08:57:35;98590.34;;;-0.59;100.00
54910;BME280;63189;51.240;9.964;2023-03-03T09:00:01;98589.56;;;-0.55;100.00
54910;BME280;63189;51.240;9.964;2023-03-03T09:02:26;98590.44;;;-0.54;100.00
54910;BME280;63189;51.240;9.964;2023-03-03T09:04:52;98586.22;;;-0.52;100.00
54910;BME280;63189;51.240;9.964;2023-03-03T09:07:17;98591.41;;;-0.49;100.00
54910;BME280;63189;51.240;9.964;2023-03-03T09:09:43;98581.91;;;-0.53;100.00
54910;BME280;63189;51.240;9.964;2023-03-03T09:12:28;98586.19;;;-0.54;100.00
54910;BME280;63189;51.240;9.964;2023-03-03T09:14:57;98593.13;;;-0.50;100.00
54910;BME280;63189;51.240;9.964;2023-03-03T09:17:29;98588.00;;;-0.50;100.00
54910;BME280;63189;51.240;9.964;2023-03-03T09:20:16;98580.38;;;-0.47;100.00
54910;BME280;63189;51.240;9.964;2023-03-03T09:22:46;98591.50;;;-0.45;100.00
54910;BME280;63189;51.240;9.964;2023-03-03T09:25:30;98580.41;;;-0.45;100.00
54910;BME280;63189;51.240;9.964;2023-03-03T09:27:57;98585.72;;;-0.38;100.00
54910;BME280;63189;51.240;9.964;2023-03-03T09:32:51;98594.31;;;-0.34;100.00
54910;BME280;63189;51.240;9.964;2023-03-03T09:35:37;98598.63;;;-0.33;100.00
54910;BME280;63189;51.240;9.964;2023-03-03T09:57:12;98607.72;;;-0.08;100.00
54910;BME280;63189;51.240;9.964;2023-03-03T09:59:50;98603.59;;;-0.02;100.00
54910;BME280;63189;51.240;9.964;2023-03-03T10:05:18;98608.00;;;0.04;100.00
54910;BME280;63189;51.240;9.964;2023-03-03T10:10:43;98606.38;;;0.09;100.00
54910;BME280;63189;51.240;9.964;2023-03-03T10:21:34;98603.25;;;0.22;100.00
54910;BME280;63189;51.240;9.964;2023-03-03T10:27:17;98612.69;;;0.23;100.00
54910;BME280;63189;51.240;9.964;2023-03-03T10:30:24;98611.81;;;0.23;100.00
54910;BME280;63189;51.240;9.964;2023-03-03T10:35:57;98602.44;;;0.23;99.91
54910;BME280;63189;51.240;9.964;2023-03-03T11:00:26;98622.53;;;0.46;97.72
54910;BME280;63189;51.240;9.964;2023-03-03T11:05:28;98614.06;;;0.50;97.75
54910;BME280;63189;51.240;9.964;2023-03-03T11:08:04;98614.03;;;0.48;98.13
54910;BME280;63189;51.240;9.964;2023-03-03T11:10:38;98614.91;;;0.50;98.45
54910;BME280;63189;51.240;9.964;2023-03-03T11:13:18;98616.72;;;0.54;97.97
54910;BME280;63189;51.240;9.964;2023-03-03T11:32:32;98600.72;;;0.68;96.69
54910;BME280;63189;51.240;9.964;2023-03-03T11:35:23;98597.44;;;0.75;97.05
54910;BME280;63189;51.240;9.964;2023-03-03T11:38:14;98598.41;;;0.81;96.99
54910;BME280;63189;51.240;9.964;2023-03-03T11:40:58;98595.84;;;0.81;95.90
54910;BME280;63189;51.240;9.964;2023-03-03T11:46:13;98590.44;;;0.66;95.42
54910;BME280;63189;51.240;9.964;2023-03-03T11:48:52;98600.69;;;0.66;95.44
54910;BME280;63189;51.240;9.964;2023-03-03T11:51:27;98602.44;;;0.67;95.66
54910;BME280;63189;51.240;9.964;2023-03-03T11:56:27;98592.28;;;0.73;96.49
54910;BME280;63189;51.240;9.964;2023-03-03T11:59:02;98593.22;;;0.77;97.16
54910;BME280;63189;51.240;9.964;2023-03-03T12:01:48;98583.03;;;0.83;96.85
54910;BME280;63189;51.240;9.964;2023-03-03T12:04:41;98577.97;;;0.86;96.69
54910;BME280;63189;51.240;9.964;2023-03-03T12:07:39;98584.88;;;0.90;96.72
54910;BME280;63189;51.240;9.964;2023-03-03T12:13:22;98579.00;;;0.96;97.05
54910;BME280;63189;51.240;9.964;2023-03-03T12:16:04;98581.59;;;0.97;95.67
54910;BME280;63189;51.240;9.964;2023-03-03T12:21:30;98579.00;;;0.96;94.93
54910;BME280;63189;51.240;9.964;2023-03-03T12:26:53;98580.91;;;1.06;95.42
54910;BME280;63189;51.240;9.964;2023-03-03T12:29:26;98569.78;;;1.07;95.10
54910;BME280;63189;51.240;9.964;2023-03-03T12:32:22;98565.50;;;1.06;95.24
54910;BME280;63189;51.240;9.964;2023-03-03T12:35:05;98556.13;;;1.09;95.29
54910;BME280;63189;51.240;9.964;2023-03-03T12:37:50;98569.03;;;1.14;94.90
54910;BME280;63189;51.240;9.964;2023-03-03T12:40:20;98559.53;;;1.08;94.74
54910;BME280;63189;51.240;9.964;2023-03-03T12:48:37;98560.56;;;1.18;94.29
54910;BME280;63189;51.240;9.964;2023-03-03T12:54:14;98549.59;;;1.30;94.77
54910;BME280;63189;51.240;9.964;2023-03-03T12:56:54;98554.00;;;1.37;94.82
54910;BME280;63189;51.240;9.964;2023-03-03T12:59:48;98547.25;;;1.43;94.41
54910;BME280;63189;51.240;9.964;2023-03-03T13:02:44;98546.34;;;1.40;93.88
54910;BME280;63189;51.240;9.964;2023-03-03T13:05:39;98547.09;;;1.34;93.87
54910;BME280;63189;51.240;9.964;2023-03-03T13:08:29;98543.59;;;1.29;94.51
54910;BME280;63189;51.240;9.964;2023-03-03T13:11:16;98550.44;;;1.29;94.64
54910;BME280;63189;51.240;9.964;2023-03-03T13:13:52;98553.09;;;1.35;94.24
54910;BME280;63189;51.240;9.964;2023-03-03T13:16:30;98549.72;;;1.37;94.53
54910;BME280;63189;51.240;9.964;2023-03-03T13:19:08;98543.78;;;1.41;94.26
54910;BME280;63189;51.240;9.964;2023-03-03T13:21:46;98551.50;;;1.43;94.80
54910;BME280;63189;51.240;9.964;2023-03-03T13:24:31;98539.63;;;1.48;94.54
54910;BME280;63189;51.240;9.964;2023-03-03T13:27:18;98527.53;;;1.44;93.79
54910;BME280;63189;51.240;9.964;2023-03-03T13:30:21;98531.06;;;1.49;94.22
54910;BME280;63189;51.240;9.964;2023-03-03T13:33:29;98542.25;;;1.54;94.08
54910;BME280;63189;51.240;9.964;2023-03-03T13:36:04;98539.78;;;1.60;94.13
54910;BME280;63189;51.240;9.964;2023-03-03T13:38:45;98536.34;;;1.58;93.29
54910;BME280;63189;51.240;9.964;2023-03-03T13:41:24;98543.19;;;1.58;93.89
54910;BME280;63189;51.240;9.964;2023-03-03T13:46:40;98533.69;;;1.55;94.24
54910;BME280;63189;51.240;9.964;2023-03-03T13:51:43;98534.69;;;1.63;93.94
54910;BME280;63189;51.240;9.964;2023-03-03T13:54:35;98530.38;;;1.61;93.62
54910;BME280;63189;51.240;9.964;2023-03-03T13:57:35;98526.94;;;1.62;94.23
54910;BME280;63189;51.240;9.964;2023-03-03T14:00:26;98527.78;;;1.59;94.18
54910;BME280;63189;51.240;9.964;2023-03-03T14:02:58;98541.47;;;1.58;93.73
54910;BME280;63189;51.240;9.964;2023-03-03T14:05:40;98528.59;;;1.57;94.03
54910;BME280;63189;51.240;9.964;2023-03-03T14:08:11;98531.22;;;1.60;94.34
54910;BME280;63189;51.240;9.964;2023-03-03T14:10:54;98524.34;;;1.57;93.92
54910;BME280;63189;51.240;9.964;2023-03-03T14:13:28;98518.28;;;1.55;93.99
54910;BME280;63189;51.240;9.964;2023-03-03T14:16:06;98520.06;;;1.58;94.49
54910;BME280;63189;51.240;9.964;2023-03-03T14:18:56;98521.78;;;1.59;94.79
54910;BME280;63189;51.240;9.964;2023-03-03T14:21:26;98515.81;;;1.63;94.42
54910;BME280;63189;51.240;9.964;2023-03-03T14:24:10;98509.81;;;1.62;94.92
54910;BME280;63189;51.240;9.964;2023-03-03T14:26:53;98510.72;;;1.66;94.77
54910;BME280;63189;51.240;9.964;2023-03-03T14:31:57;98509.09;;;1.72;94.87
54910;BME280;63189;51.240;9.964;2023-03-03T14:36:57;98506.56;;;1.74;93.94
54910;BME280;63189;51.240;9.964;2023-03-03T14:39:33;98502.25;;;1.73;93.36
54910;BME280;63189;51.240;9.964;2023-03-03T14:41:59;98507.41;;;1.73;94.23
54910;BME280;63189;51.240;9.964;2023-03-03T14:44:32;98502.25;;;1.71;93.63
54910;BME280;63189;51.240;9.964;2023-03-03T14:49:38;98501.28;;;1.65;94.42
54910;BME280;63189;51.240;9.964;2023-03-03T14:54:58;98481.66;;;1.68;94.37
54910;BME280;63189;51.240;9.964;2023-03-03T15:05:23;98484.97;;;1.61;94.00
54910;BME280;63189;51.240;9.964;2023-03-03T15:08:09;98479.84;;;1.61;94.26
54910;BME280;63189;51.240;9.964;2023-03-03T15:10:39;98481.47;;;1.56;93.94
54910;BME280;63189;51.240;9.964;2023-03-03T15:18:23;98471.16;;;1.53;94.29
54910;BME280;63189;51.240;9.964;2023-03-03T15:26:03;98468.69;;;1.61;94.38
54910;BME280;63189;51.240;9.964;2023-03-03T15:31:41;98470.41;;;1.60;94.26
54910;BME280;63189;51.240;9.964;2023-03-03T15:36:51;98478.09;;;1.60;94.15
54910;BME280;63189;51.240;9.964;2023-03-03T15:42:17;98463.47;;;1.55;94.46
54910;BME280;63189;51.240;9.964;2023-03-03T16:00:59;98456.41;;;1.38;94.59
54910;BME280;63189;51.240;9.964;2023-03-03T16:03:35;98456.34;;;1.35;94.91
54910;BME280;63189;51.240;9.964;2023-03-03T16:06:18;98456.34;;;1.35;94.95
54910;BME280;63189;51.240;9.964;2023-03-03T16:11:27;98462.22;;;1.27;95.60
54910;BME280;63189;51.240;9.964;2023-03-03T16:16:42;98473.28;;;1.23;96.24
54910;BME280;63189;51.240;9.964;2023-03-03T16:24:44;98469.78;;;1.16;97.07
54910;BME280;63189;51.240;9.964;2023-03-03T16:27:38;98475.00;;;1.22;96.41
54910;BME280;63189;51.240;9.964;2023-03-03T16:30:31;98480.97;;;1.21;96.78
54910;BME280;63189;51.240;9.964;2023-03-03T16:35:30;98476.63;;;1.17;96.41
54910;BME280;63189;51.240;9.964;2023-03-03T16:38:18;98481.78;;;1.17;96.48
54910;BME280;63189;51.240;9.964;2023-03-03T16:40:54;98481.72;;;1.14;96.53
54910;BME280;63189;51.240;9.964;2023-03-03T16:46:14;98479.97;;;1.13;96.81
54910;BME280;63189;51.240;9.964;2023-03-03T16:52:02;98486.78;;;1.08;96.34
54910;BME280;63189;51.240;9.964;2023-03-03T16:54:49;98497.00;;;1.05;96.38
54910;BME280;63189;51.240;9.964;2023-03-03T17:00:13;98488.22;;;0.94;96.18
54910;BME280;63189;51.240;9.964;2023-03-03T17:05:34;98493.31;;;0.91;98.03